Time;durP1;ratioP1;P1;durP2;ratioP2;P2;SDS_P1;SDS_P2;PMS_P1;PMS_P2;Temp;Humidity;BMP_temperature;BMP_pressure;BME280_temperature;BME280_humidity;BME280_pressure;Samples;Min_cycle;Max_cycle;Signal;HPM_P1;HPM_P2
2021/03/24 00:01:26;;;;;;;7.28;6.57;;;;;;;19.06;49.71;102383.94;5045127;28;20104;-72
2021/03/24 00:03:53;;;;;;;7.87;6.63;;;;;;;19.02;49.69;102374.25;5031585;28;20041;-71
2021/03/24 00:06:19;;;;;;;7.18;6.47;;;;;;;19.02;49.56;102379.47;5046370;28;20080;-71
2021/03/24 00:08:45;;;;;;;6.63;5.93;;;;;;;19.03;49.82;102371.66;5051312;28;20025;-71
2021/03/24 00:11:13;;;;;;;7.35;6.53;;;;;;;19.03;49.72;102369.03;5049989;28;20044;-72
2021/03/24 00:13:38;;;;;;;7.13;6.43;;;;;;;19.02;49.43;102364.63;5063771;28;20075;-71
2021/03/24 00:16:05;;;;;;;7.80;6.25;;;;;;;18.99;49.75;102355.81;5054237;28;20036;-72
2021/03/24 00:18:31;;;;;;;7.18;6.47;;;;;;;19.02;49.79;102362.00;5064851;28;20379;-71
2021/03/24 00:20:57;;;;;;;7.68;6.95;;;;;;;18.99;49.50;102347.97;5070060;28;20024;-72
2021/03/24 00:23:23;;;;;;;7.60;6.63;;;;;;;19.00;49.68;102352.34;5071210;28;20025;-72
2021/03/24 00:25:49;;;;;;;7.35;6.60;;;;;;;19.00;49.98;102354.97;5062137;28;20029;-72
2021/03/24 00:28:15;;;;;;;6.80;6.05;;;;;;;18.97;49.74;102352.28;5072671;28;20378;-71
2021/03/24 00:30:43;;;;;;;8.82;6.55;;;;;;;18.99;49.75;102351.47;5067758;28;20041;-71
2021/03/24 00:33:11;;;;;;;9.55;6.45;;;;;;;18.97;49.54;102353.19;5071188;28;20095;-71
2021/03/24 00:35:36;;;;;;;6.90;6.13;;;;;;;18.92;49.70;102350.50;5061624;28;20545;-72
2021/03/24 00:38:03;;;;;;;7.35;6.63;;;;;;;18.96;49.79;102367.13;5071753;28;20052;-71
2021/03/24 00:40:32;;;;;;;7.78;7.00;;;;;;;18.92;49.75;102357.47;5068345;28;20091;-71
2021/03/24 00:42:58;;;;;;;8.70;6.40;;;;;;;18.98;49.60;102359.31;5064508;28;20036;-72
2021/03/24 00:45:23;;;;;;;7.88;7.07;;;;;;;18.96;49.79;102359.28;5064761;28;20462;-71
2021/03/24 00:47:49;;;;;;;7.22;6.43;;;;;;;18.96;49.66;102358.38;5069729;28;20036;-71
2021/03/24 00:50:25;;;;;;;7.68;6.53;;;;;;;18.87;49.71;102344.28;5077325;28;20047;-72
2021/03/24 00:52:50;;;;;;;8.00;7.05;;;;;;;18.93;49.65;102346.13;5078289;28;20174;-71
2021/03/24 00:55:17;;;;;;;6.47;5.38;;;;;;;18.90;49.63;102341.72;5066841;28;20530;-71
2021/03/24 00:57:42;;;;;;;7.05;6.22;;;;;;;18.90;49.78;102349.59;5064731;28;20394;-72
2021/03/24 01:00:13;;;;;;;6.53;5.90;;;;;;;18.90;49.56;102349.59;5086020;28;20028;-71
2021/03/24 01:02:39;;;;;;;8.63;7.72;;;;;;;18.87;49.60;102336.41;5059778;28;20029;-71
2021/03/24 01:05:10;;;;;;;8.13;6.55;;;;;;;18.91;49.71;102339.97;5065922;28;20544;-71
2021/03/24 01:07:35;;;;;;;8.48;6.72;;;;;;;18.91;49.67;102340.88;5064386;28;20025;-71
2021/03/24 01:10:00;;;;;;;7.32;6.30;;;;;;;18.87;49.63;102332.91;5056384;28;20049;-72
2021/03/24 01:12:26;;;;;;;7.57;6.78;;;;;;;18.84;49.70;102322.38;5062631;28;20095;-71
2021/03/24 01:14:51;;;;;;;6.97;5.93;;;;;;;18.88;49.55;102335.56;5076145;28;20045;-71
2021/03/24 01:17:17;;;;;;;7.30;6.57;;;;;;;18.78;49.58;102315.31;5065666;28;20550;-72
2021/03/24 01:19:43;;;;;;;7.88;7.07;;;;;;;18.90;49.57;102330.34;5060485;28;20037;-75
2021/03/24 01:22:08;;;;;;;8.00;7.10;;;;;;;18.78;49.64;102302.19;5087870;28;20479;-72
2021/03/24 01:24:33;;;;;;;7.90;7.03;;;;;;;18.88;49.61;102322.47;5081557;28;20087;-75
2021/03/24 01:26:59;;;;;;;7.40;6.47;;;;;;;18.88;49.68;102330.31;5062162;28;20033;-75
2021/03/24 01:29:24;;;;;;;7.65;5.72;;;;;;;18.88;49.62;102330.31;5059523;28;20038;-75
2021/03/24 01:31:50;;;;;;;6.32;5.72;;;;;;;18.87;49.66;102323.31;5075708;28;20056;-75
2021/03/24 01:34:15;;;;;;;9.45;7.35;;;;;;;18.82;49.48;102309.28;5055048;28;20462;-75
2021/03/24 01:36:40;;;;;;;8.98;6.60;;;;;;;18.82;49.51;102324.09;5063610;28;20021;-75
2021/03/24 01:39:06;;;;;;;8.02;6.97;;;;;;;18.85;49.59;102319.78;5071541;28;20025;-75
2021/03/24 01:41:31;;;;;;;6.93;6.03;;;;;;;18.81;49.56;102317.09;5058118;28;20108;-75
2021/03/24 01:43:57;;;;;;;7.90;6.68;;;;;;;18.85;49.50;102325.03;5071138;28;20039;-75
2021/03/24 01:46:36;;;;;;;7.65;6.15;;;;;;;18.84;49.74;102323.25;5067745;28;20036;-75
2021/03/24 01:49:11;;;;;;;7.47;6.43;;;;;;;18.84;49.47;102322.38;5043918;28;20047;-75
2021/03/24 01:51:41;;;;;;;8.05;7.25;;;;;;;18.78;49.68;102309.19;5055449;28;20028;-75
2021/03/24 01:54:10;;;;;;;7.72;6.68;;;;;;;18.82;49.52;102313.63;5063394;28;20054;-75
2021/03/24 01:56:38;;;;;;;8.30;6.22;;;;;;;18.82;49.55;102316.25;5056820;28;20089;-75
2021/03/24 01:59:03;;;;;;;8.30;7.35;;;;;;;18.83;49.56;102312.75;5064523;28;20021;-76
2021/03/24 02:01:29;;;;;;;8.27;7.10;;;;;;;18.82;49.55;102309.28;5054806;28;20029;-75
2021/03/24 02:03:56;;;;;;;8.85;6.57;;;;;;;18.81;49.55;102315.38;5079176;28;20033;-75
2021/03/24 02:06:29;;;;;;;10.27;7.18;;;;;;;18.81;49.57;102317.97;5048950;28;20028;-75
2021/03/24 02:09:06;;;;;;;8.30;7.10;;;;;;;18.80;49.59;102310.97;5058363;28;20031;-75
2021/03/24 02:12:01;;;;;;;7.90;6.70;;;;;;;18.79;49.55;102316.19;5065132;28;20039;-75
2021/03/24 02:14:32;;;;;;;8.13;6.68;;;;;;;18.80;49.62;102305.72;5060094;28;20148;-75
2021/03/24 02:16:59;;;;;;;8.23;6.60;;;;;;;18.78;49.93;102306.56;5066336;28;20029;-76
2021/03/24 02:20:06;;;;;;;7.28;6.40;;;;;;;18.72;49.82;102288.97;5070154;28;20082;-75
2021/03/24 02:22:38;;;;;;;7.53;6.63;;;;;;;18.74;49.58;102292.50;5063214;28;20038;-75
2021/03/24 02:25:08;;;;;;;8.38;6.55;;;;;;;18.78;49.52;102296.97;5071716;28;20029;-75
2021/03/24 02:27:37;;;;;;;8.07;6.38;;;;;;;18.76;49.73;102293.44;5067119;28;20028;-75
2021/03/24 02:30:11;;;;;;;8.52;7.07;;;;;;;18.76;49.68;102285.56;5061549;28;20028;-75
2021/03/24 02:32:41;;;;;;;7.38;6.53;;;;;;;18.72;49.55;102283.72;5061176;28;20033;-75
2021/03/24 02:35:17;;;;;;;8.15;6.63;;;;;;;18.67;49.72;102267.06;5060597;28;20036;-75
2021/03/24 02:37:43;;;;;;;9.32;7.47;;;;;;;18.70;49.65;102272.34;5069629;28;20108;-72
2021/03/24 02:40:15;;;;;;;8.38;6.72;;;;;;;18.74;49.57;102279.41;5065147;28;20111;-71
2021/03/24 02:42:44;;;;;;;7.28;6.57;;;;;;;18.73;49.51;102277.63;5085651;28;20028;-71
2021/03/24 02:45:13;;;;;;;11.73;7.07;;;;;;;18.73;49.68;102269.78;5064874;28;20554;-71
2021/03/24 02:47:41;;;;;;;7.85;6.75;;;;;;;18.68;49.40;102263.59;5056651;28;20037;-71
2021/03/24 02:50:08;;;;;;;7.65;6.85;;;;;;;18.73;49.50;102268.91;5060231;28;20047;-71
2021/03/24 02:52:35;;;;;;;7.30;6.28;;;;;;;18.73;49.49;102267.16;5067952;28;20032;-71
2021/03/24 02:55:02;;;;;;;8.05;6.82;;;;;;;18.68;49.53;102266.22;5065172;28;20107;-71
2021/03/24 02:57:27;;;;;;;8.50;6.93;;;;;;;18.71;49.62;102266.25;5080255;28;20114;-71
2021/03/24 02:59:52;;;;;;;7.25;6.53;;;;;;;18.72;49.54;102269.75;5061212;28;20055;-71
2021/03/24 03:02:22;;;;;;;7.32;6.47;;;;;;;18.68;49.44;102263.59;5069932;28;20040;-71
2021/03/24 03:05:10;;;;;;;7.82;6.85;;;;;;;18.69;49.40;102273.22;5059052;28;20051;-71
2021/03/24 03:07:43;;;;;;;8.13;6.22;;;;;;;18.70;49.57;102277.59;5074700;28;20036;-75
2021/03/24 03:10:16;;;;;;;8.35;7.45;;;;;;;18.69;49.54;102270.59;5071222;28;20029;-75
2021/03/24 03:12:54;;;;;;;8.20;7.35;;;;;;;18.70;49.46;102281.94;5063834;28;20072;-75
2021/03/24 03:15:23;;;;;;;9.63;7.90;;;;;;;18.69;49.48;102286.31;5052403;28;20565;-75
2021/03/24 03:18:21;;;;;;;7.65;6.88;;;;;;;18.67;49.74;102277.56;5063085;28;20471;-75
2021/03/24 03:20:53;;;;;;;15.25;8.13;;;;;;;18.63;49.81;102267.88;5053185;28;20028;-75
2021/03/24 03:23:21;;;;;;;7.93;6.93;;;;;;;18.66;49.47;102270.53;5078564;28;20115;-75
2021/03/24 03:25:54;;;;;;;7.88;7.03;;;;;;;18.66;49.65;102267.03;5059696;28;20033;-75
2021/03/24 03:28:20;;;;;;;9.13;7.57;;;;;;;18.66;49.74;102262.69;5055107;28;20429;-75
2021/03/24 03:30:49;;;;;;;8.02;7.10;;;;;;;18.61;49.66;102253.84;5059226;28;20064;-75
2021/03/24 03:33:17;;;;;;;8.50;7.38;;;;;;;18.64;49.66;102253.03;5055630;28;20024;-76
2021/03/24 03:35:43;;;;;;;7.75;6.75;;;;;;;18.64;49.68;102259.16;5056745;28;20100;-75
2021/03/24 03:38:16;;;;;;;6.82;5.55;;;;;;;18.62;49.63;102258.25;5062897;28;20036;-75
2021/03/24 03:40:44;;;;;;;7.25;6.55;;;;;;;18.64;49.54;102260.88;5070088;28;20589;-75
2021/03/24 03:43:13;;;;;;;9.93;6.72;;;;;;;18.61;49.81;102256.47;5058977;28;20040;-75
2021/03/24 03:45:41;;;;;;;6.82;5.80;;;;;;;18.61;49.54;102261.72;5061518;28;20028;-75
2021/03/24 03:48:10;;;;;;;7.93;7.18;;;;;;;18.56;49.55;102251.09;5063089;28;20036;-75
2021/03/24 03:50:35;;;;;;;8.10;7.30;;;;;;;18.59;49.64;102255.56;5056367;28;20055;-75
2021/03/24 03:53:36;;;;;;;7.88;6.68;;;;;;;18.62;49.56;102270.47;5073052;28;20056;-75
2021/03/24 03:56:13;;;;;;;6.90;6.28;;;;;;;18.62;49.52;102258.25;5040238;28;20051;-75
2021/03/24 03:58:41;;;;;;;7.47;6.50;;;;;;;18.61;49.58;102264.34;5062476;28;20106;-75
2021/03/24 04:01:21;;;;;;;8.38;6.53;;;;;;;18.56;49.52;102251.09;5065967;28;20086;-75
2021/03/24 04:03:54;;;;;;;7.88;7.03;;;;;;;18.60;49.47;102261.69;5064614;28;20383;-75
2021/03/24 04:06:27;;;;;;;8.02;7.22;;;;;;;18.57;49.44;102254.63;5056395;28;20025;-75
2021/03/24 04:08:56;;;;;;;9.82;7.00;;;;;;;18.56;49.68;102255.50;5053183;28;20021;-75
2021/03/24 04:11:24;;;;;;;9.23;7.63;;;;;;;18.57;49.78;102249.38;5057371;28;20403;-75
2021/03/24 04:13:54;;;;;;;8.35;6.65;;;;;;;18.51;49.62;102244.94;5055166;28;20060;-75
2021/03/24 04:16:20;;;;;;;8.43;7.50;;;;;;;18.56;49.59;102258.13;5050403;28;20474;-71
2021/03/24 04:19:06;;;;;;;7.72;6.72;;;;;;;18.42;49.68;102238.66;5058483;28;20040;-71
2021/03/24 04:21:36;;;;;;;9.73;6.95;;;;;;;18.50;49.37;102248.41;5047843;28;20475;-71
2021/03/24 04:24:08;;;;;;;8.82;7.93;;;;;;;18.56;49.52;102261.59;5040511;28;20069;-71
2021/03/24 04:26:48;;;;;;;7.93;7.13;;;;;;;18.53;49.33;102253.69;5056985;28;20027;-71
2021/03/24 04:29:26;;;;;;;9.30;7.13;;;;;;;18.42;49.31;102236.91;5057918;28;20103;-71
2021/03/24 04:31:54;;;;;;;8.40;7.45;;;;;;;18.54;49.63;102257.22;5033264;28;20064;-71
2021/03/24 04:34:21;;;;;;;7.18;6.47;;;;;;;18.44;49.53;102242.16;5052112;28;20394;-71
2021/03/24 04:36:52;;;;;;;9.07;7.07;;;;;;;18.54;49.59;102259.81;5030040;28;20040;-75
2021/03/24 04:39:36;;;;;;;7.68;6.88;;;;;;;18.51;49.45;102257.16;5046238;28;20051;-75
2021/03/24 04:42:09;;;;;;;7.20;6.35;;;;;;;18.48;49.36;102257.09;5046782;28;20468;-75
2021/03/24 04:44:37;;;;;;;10.05;7.80;;;;;;;18.51;49.50;102259.75;5052714;28;20025;-75
2021/03/24 04:47:26;;;;;;;10.02;8.15;;;;;;;18.51;49.41;102267.63;5054854;28;20028;-75
2021/03/24 04:49:57;;;;;;;8.25;6.88;;;;;;;18.46;49.35;102253.56;5051096;28;20028;-75
2021/03/24 04:52:24;;;;;;;11.38;7.78;;;;;;;18.50;49.39;102258.00;5056159;28;20509;-75
2021/03/24 04:54:52;;;;;;;7.45;6.45;;;;;;;18.49;49.57;102254.50;5035180;28;20082;-75
2021/03/24 04:57:21;;;;;;;7.50;6.68;;;;;;;18.49;49.56;102257.13;5062263;28;20068;-74
2021/03/24 04:59:50;;;;;;;9.55;7.30;;;;;;;18.49;49.36;102266.72;5061704;28;20423;-75
2021/03/24 05:02:20;;;;;;;9.25;7.03;;;;;;;18.45;49.33;102268.38;5043638;28;20016;-75
2021/03/24 05:04:50;;;;;;;7.88;6.65;;;;;;;18.48;49.31;102268.44;5065084;28;20074;-75
2021/03/24 05:07:28;;;;;;;7.60;6.53;;;;;;;18.48;49.44;102264.94;5058546;28;20024;-75
2021/03/24 05:09:54;;;;;;;7.70;6.95;;;;;;;18.49;49.57;102277.19;5060218;28;20490;-75
2021/03/24 05:12:24;;;;;;;8.05;6.80;;;;;;;18.43;49.55;102264.88;5074098;28;20041;-75
2021/03/24 05:15:08;;;;;;;8.45;6.93;;;;;;;18.46;49.31;102274.50;5049298;28;20073;-75
2021/03/24 05:17:35;;;;;;;8.95;7.38;;;;;;;18.46;49.40;102274.50;5023584;28;20056;-75
2021/03/24 05:20:07;;;;;;;8.38;6.68;;;;;;;18.43;49.32;102256.13;5047500;28;20029;-75
2021/03/24 05:22:43;;;;;;;7.55;6.78;;;;;;;18.45;49.61;102273.63;5036199;28;20033;-75
2021/03/24 05:25:32;;;;;;;8.75;7.78;;;;;;;18.42;49.14;102265.72;5027115;28;20025;-75
2021/03/24 05:28:06;;;;;;;9.00;7.63;;;;;;;18.44;49.47;102271.84;5031904;28;20116;-75
2021/03/24 05:30:37;;;;;;;10.43;7.47;;;;;;;18.44;49.21;102273.59;5017636;28;20554;-75
2021/03/24 05:33:15;;;;;;;8.45;7.57;;;;;;;18.42;49.55;102263.13;5032561;28;20044;-73
2021/03/24 05:35:46;;;;;;;8.52;6.97;;;;;;;18.44;49.21;102269.22;5047608;28;20404;-72
2021/03/24 05:38:16;;;;;;;8.35;7.53;;;;;;;18.46;49.53;102264.03;5025449;28;20171;-72
2021/03/24 05:41:02;;;;;;;7.20;6.47;;;;;;;18.49;49.17;102248.38;5041796;28;20033;-72
2021/03/24 05:43:39;;;;;;;7.20;6.50;;;;;;;18.70;48.85;102264.47;5024778;28;20029;-72
2021/03/24 05:46:35;;;;;;;6.07;5.47;;;;;;;18.56;48.99;102234.53;5053523;28;20025;-73
2021/03/24 05:49:15;;;;;;;8.80;7.20;;;;;;;18.72;49.06;102260.16;5041931;28;20024;-72
2021/03/24 05:52:25;;;;;;;7.28;6.57;;;;;;;18.82;48.89;102255.97;5041874;28;20056;-71
2021/03/24 05:54:57;;;;;;;7.60;6.90;;;;;;;18.84;48.91;102254.22;5041956;28;20029;-72
2021/03/24 05:57:56;;;;;;;12.75;7.13;;;;;;;18.86;48.50;102266.50;5024384;28;20037;-71
2021/03/24 06:00:32;;;;;;;7.63;6.68;;;;;;;18.91;48.78;102263.97;5044001;28;20021;-71
2021/03/24 06:03:26;;;;;;;10.57;7.13;;;;;;;18.91;48.71;102266.59;5038637;28;20039;-71
2021/03/24 06:05:54;;;;;;;;;;;;;;;18.91;48.85;102267.47;5034708;28;20025;-76
2021/03/24 06:08:38;;;;;;;7.47;6.05;;;;;;;18.98;48.80;102272.78;5025494;28;19992;-76
2021/03/24 06:11:31;;;;;;;7.60;5.50;;;;;;;18.91;48.72;102251.75;5046574;28;20028;-79
2021/03/24 06:14:23;;;;;;;9.82;6.82;;;;;;;18.96;48.71;102264.00;5048085;28;20127;-76
2021/03/24 06:17:16;;;;;;;6.95;6.18;;;;;;;18.99;48.67;102264.06;5055705;28;20470;-77
2021/03/24 06:20:00;;;;;;;8.57;6.55;;;;;;;19.04;48.58;102267.66;5070029;28;20085;-77
2021/03/24 06:22:55;;;;;;;8.82;6.07;;;;;;;19.02;48.71;102269.38;5065930;28;20024;-76
2021/03/24 06:25:47;;;;;;;11.43;6.40;;;;;;;19.00;49.05;102271.09;5065524;28;20540;-76
2021/03/24 06:28:48;;;;;;;11.45;7.55;;;;;;;19.05;48.82;102272.94;5060368;28;20106;-76
2021/03/24 06:31:20;;;;;;;10.80;7.72;;;;;;;19.04;49.00;102265.03;5061004;28;20372;-72
2021/03/24 06:34:34;;;;;;;18.13;9.55;;;;;;;19.01;49.06;102267.59;5068201;28;20024;-74
2021/03/24 06:37:31;;;;;;;10.77;7.75;;;;;;;19.10;49.05;102268.63;5042305;28;20513;-80
2021/03/24 06:40:33;;;;;;;13.75;8.50;;;;;;;19.09;49.15;102264.22;5018412;28;20036;-76
2021/03/24 06:43:30;;;;;;;14.25;7.40;;;;;;;19.01;49.57;102251.88;5042687;28;20028;-73
2021/03/24 06:46:09;;;;;;;11.48;8.35;;;;;;;19.05;49.27;102244.09;5047974;28;20033;-72
2021/03/24 06:48:53;;;;;;;13.98;7.43;;;;;;;19.14;49.16;102264.31;5043239;28;20036;-76
2021/03/24 06:51:46;;;;;;;14.55;9.10;;;;;;;19.11;49.27;102264.25;5053796;28;20057;-76
2021/03/24 06:54:42;;;;;;;11.68;8.10;;;;;;;19.18;49.30;102261.75;5039848;28;20025;-76
2021/03/24 06:57:16;;;;;;;13.00;9.32;;;;;;;19.14;49.35;102248.56;5052673;28;20391;-75
2021/03/24 06:59:50;;;;;;;14.80;9.60;;;;;;;19.17;49.29;102259.13;5053172;28;20478;-76
2021/03/24 07:02:40;;;;;;;14.15;8.45;;;;;;;19.20;49.31;102254.81;5050674;28;20047;-76
2021/03/24 07:05:34;;;;;;;14.90;8.63;;;;;;;19.28;49.01;102255.78;5051957;28;20123;-76
2021/03/24 07:08:27;;;;;;;11.15;7.65;;;;;;;19.27;49.10;102251.41;5046331;28;20021;-75
2021/03/24 07:11:21;;;;;;;10.40;7.65;;;;;;;19.26;49.11;102252.25;5051902;28;20434;-75
2021/03/24 07:13:47;;;;;;;;;;;;;;;19.39;48.82;102250.69;5046102;28;20048;-76
2021/03/24 07:16:19;;;;;;;12.77;8.15;;;;;;;19.37;49.02;102252.41;5055335;28;19913;-75
2021/03/24 07:19:18;;;;;;;10.45;7.72;;;;;;;19.38;49.07;102256.78;5049298;28;20024;-74
2021/03/24 07:22:22;;;;;;;11.13;8.20;;;;;;;19.48;48.75;102265.66;5042381;28;20032;-73
2021/03/24 07:25:22;;;;;;;10.40;6.88;;;;;;;19.49;48.87;102270.06;5050175;28;20392;-76
2021/03/24 07:28:11;;;;;;;10.38;7.75;;;;;;;19.47;48.96;102263.91;5046405;28;20026;-74
2021/03/24 07:31:08;;;;;;;12.32;7.78;;;;;;;19.56;48.93;102258.81;5051571;28;20021;-73
2021/03/24 07:34:06;;;;;;;13.82;7.82;;;;;;;19.51;48.76;102261.38;5050026;28;20029;-74
2021/03/24 07:37:04;;;;;;;8.98;7.03;;;;;;;19.56;48.79;102261.44;5044263;28;20438;-74
2021/03/24 07:39:41;;;;;;;8.30;7.10;;;;;;;19.61;48.92;102263.25;5011966;28;20387;-72
2021/03/24 07:42:39;;;;;;;10.30;7.47;;;;;;;19.62;48.68;102272.88;5057044;28;20094;-72
2021/03/24 07:45:04;;;;;;;8.70;7.13;;;;;;;19.64;48.79;102278.16;5044834;28;20024;-72
2021/03/24 07:48:07;;;;;;;8.98;6.80;;;;;;;19.70;48.55;102273.00;5040155;28;20052;-72
2021/03/24 07:50:36;;;;;;;10.50;6.95;;;;;;;19.67;48.79;102266.81;5049905;28;20387;-72
2021/03/24 07:53:26;;;;;;;11.73;8.13;;;;;;;19.65;48.92;102266.81;5053190;28;20063;-76
2021/03/24 07:56:12;;;;;;;10.80;7.00;;;;;;;19.66;48.80;102258.06;5068110;28;20040;-75
2021/03/24 07:59:00;;;;;;;9.70;7.28;;;;;;;19.71;48.96;102268.63;5062038;28;20025;-76
2021/03/24 08:01:42;;;;;;;8.93;6.78;;;;;;;19.64;48.89;102259.78;5042088;28;20041;-76
2021/03/24 08:04:29;;;;;;;9.32;7.18;;;;;;;19.73;49.16;102264.28;5075056;28;20032;-76
2021/03/24 08:07:20;;;;;;;8.73;6.32;;;;;;;19.69;48.79;102254.59;5063949;28;20021;-72
2021/03/24 08:10:23;;;;;;;8.82;6.75;;;;;;;19.71;49.02;102264.28;5050624;28;20032;-72
2021/03/24 08:13:26;;;;;;;9.52;6.88;;;;;;;19.79;49.11;102261.72;5044929;28;20032;-72
2021/03/24 08:16:07;;;;;;;7.72;6.65;;;;;;;19.73;48.79;102257.31;5020755;28;20026;-72
2021/03/24 08:18:58;;;;;;;7.88;6.60;;;;;;;19.84;49.21;102271.44;5028467;28;20033;-77
2021/03/24 08:22:01;;;;;;;10.20;7.35;;;;;;;19.87;48.85;102267.94;5042313;28;20107;-80
2021/03/24 08:24:32;;;;;;;11.65;7.30;;;;;;;19.90;49.02;102265.34;5016111;28;20033;-75
2021/03/24 08:27:08;;;;;;;11.60;6.15;;;;;;;19.88;48.65;102260.09;5034829;28;20029;-76
2021/03/24 08:29:39;;;;;;;10.20;5.78;;;;;;;19.85;48.89;102248.69;5047559;28;20025;-76
2021/03/24 08:32:24;;;;;;;11.32;5.88;;;;;;;19.93;48.89;102255.78;5053350;28;20467;-72
2021/03/24 08:35:27;;;;;;;9.65;6.45;;;;;;;19.95;48.83;102261.06;5043750;28;20057;-72
2021/03/24 08:38:06;;;;;;;10.13;5.97;;;;;;;19.99;49.39;102257.59;5033686;28;20032;-77
2021/03/24 08:41:03;;;;;;;10.38;6.35;;;;;;;19.98;49.47;102266.34;5030055;28;20530;-77
2021/03/24 08:43:46;;;;;;;9.95;5.53;;;;;;;19.92;49.33;102255.75;5033036;28;20056;-77
2021/03/24 08:46:18;;;;;;;7.22;5.68;;;;;;;19.90;49.36;102246.97;5039889;28;20026;-77
2021/03/24 08:48:52;;;;;;;7.95;5.68;;;;;;;19.87;49.25;102258.31;5030696;28;20075;-76
2021/03/24 08:51:27;;;;;;;6.60;5.90;;;;;;;19.80;49.24;102253.88;5030163;28;20030;-77
2021/03/24 08:53:58;;;;;;;8.20;6.07;;;;;;;19.82;49.50;102267.03;5037864;28;20029;-77
2021/03/24 08:56:50;;;;;;;6.50;5.80;;;;;;;19.80;49.48;102256.50;5041564;28;20057;-76
2021/03/24 08:59:35;;;;;;;6.82;5.97;;;;;;;19.75;49.36;102255.53;5011487;28;20087;-77
2021/03/24 09:02:33;;;;;;;8.73;5.90;;;;;;;19.77;49.41;102256.47;5026869;28;20073;-76
2021/03/24 09:05:14;;;;;;;6.68;5.93;;;;;;;19.76;49.17;102248.56;5026494;28;20483;-77
2021/03/24 09:07:59;;;;;;;6.93;5.57;;;;;;;19.76;49.25;102251.19;5017544;28;20039;-76
2021/03/24 09:11:22;;;;;;;6.78;5.18;;;;;;;19.73;48.94;102248.53;5040766;28;20026;-77
2021/03/24 09:14:05;;;;;;;7.68;5.97;;;;;;;19.72;49.28;102246.78;4979341;28;20054;-77
2021/03/24 09:16:49;;;;;;;8.77;6.20;;;;;;;19.70;49.18;102238.88;4995772;28;20036;-77
2021/03/24 09:20:08;;;;;;;6.25;5.65;;;;;;;19.70;49.09;102249.38;5038376;28;20056;-77
2021/03/24 09:22:58;;;;;;;6.40;5.35;;;;;;;19.69;49.05;102259.84;5013372;28;20037;-73
2021/03/24 09:25:45;;;;;;;7.15;6.07;;;;;;;19.67;49.20;102254.59;5048873;28;20024;-73
2021/03/24 09:28:35;;;;;;;7.20;5.80;;;;;;;19.67;49.02;102256.31;5053674;28;20087;-73
2021/03/24 09:31:04;;;;;;;7.15;6.00;;;;;;;19.65;49.12;102247.56;5057740;28;20040;-74
2021/03/24 09:33:50;;;;;;;6.90;5.85;;;;;;;19.44;49.19;102219.28;5051728;28;20368;-74
2021/03/24 09:36:34;;;;;;;7.35;5.43;;;;;;;19.64;49.04;102262.41;5046111;28;20032;-73
2021/03/24 09:39:06;;;;;;;;;;;;;;;19.64;48.95;102265.03;5052086;28;20056;-73
2021/03/24 09:41:45;;;;;;;6.22;5.63;;;;;;;19.59;49.02;102256.25;5053991;28;19913;-74
2021/03/24 09:44:22;;;;;;;8.02;6.43;;;;;;;19.58;49.01;102257.09;5055899;28;20047;-77
2021/03/24 09:46:51;;;;;;;7.28;5.57;;;;;;;19.53;49.18;102243.91;5052551;28;20029;-76
2021/03/24 09:49:38;;;;;;;9.35;6.43;;;;;;;19.59;48.91;102254.50;5054796;28;20104;-77
2021/03/24 09:52:16;;;;;;;8.05;6.03;;;;;;;19.58;49.00;102252.75;5055549;28;20379;-77
2021/03/24 09:55:03;;;;;;;7.90;5.63;;;;;;;19.57;49.10;102256.22;5054746;28;20033;-76
2021/03/24 09:57:47;;;;;;;7.78;5.72;;;;;;;19.57;48.66;102258.84;5053478;28;20021;-76
2021/03/24 10:00:18;;;;;;;7.20;5.78;;;;;;;19.50;48.95;102249.13;5055018;28;20013;-77
2021/03/24 10:03:15;;;;;;;8.13;6.43;;;;;;;19.52;48.98;102254.38;5038088;28;20033;-77
2021/03/24 10:05:51;;;;;;;7.60;6.03;;;;;;;19.53;49.00;102249.16;5054045;28;20020;-76
2021/03/24 10:08:23;;;;;;;6.78;5.63;;;;;;;19.47;49.02;102240.31;5055651;28;20107;-76
2021/03/24 10:10:50;;;;;;;5.93;5.32;;;;;;;19.53;49.12;102264.91;5054652;28;20032;-77
2021/03/24 10:13:25;;;;;;;5.90;5.30;;;;;;;19.50;48.82;102256.97;5053420;28;20049;-76
2021/03/24 10:15:53;;;;;;;6.50;5.38;;;;;;;19.52;48.94;102255.25;5028893;28;20069;-76
2021/03/24 10:18:28;;;;;;;6.50;5.35;;;;;;;19.50;48.87;102262.22;5029795;28;20033;-76
2021/03/24 10:21:01;;;;;;;6.90;6.20;;;;;;;19.49;48.98;102254.34;5035681;28;20119;-77
2021/03/24 10:23:35;;;;;;;6.75;6.05;;;;;;;19.46;48.82;102238.53;5017612;28;20029;-77
2021/03/24 10:26:20;;;;;;;5.25;4.75;;;;;;;19.45;49.10;102235.03;5035624;28;20029;-77
2021/03/24 10:28:59;;;;;;;7.40;6.20;;;;;;;19.47;48.89;102237.69;5033692;28;20040;-77
2021/03/24 10:31:28;;;;;;;7.20;5.72;;;;;;;19.49;49.23;102255.22;5034728;28;20029;-77
2021/03/24 10:34:01;;;;;;;7.75;6.45;;;;;;;19.50;49.01;102258.72;5033890;28;20026;-76
2021/03/24 10:36:49;;;;;;;;;;;;;;;19.51;48.71;102261.38;5035589;28;20100;-76
2021/03/24 10:39:22;;;;;;;6.07;5.40;;;;;;;19.50;48.84;102242.97;5017160;28;19909;-77
2021/03/24 10:42:16;;;;;;;6.68;5.97;;;;;;;19.47;48.78;102230.69;5033617;28;20091;-77
2021/03/24 10:44:45;;;;;;;6.32;5.50;;;;;;;19.47;48.85;102238.56;5031946;28;20029;-77
2021/03/24 10:47:25;;;;;;;5.97;5.38;;;;;;;19.41;49.06;102225.34;5015596;28;20030;-75
2021/03/24 10:50:01;;;;;;;9.25;6.15;;;;;;;19.44;48.96;102228.03;5030546;28;20086;-76
2021/03/24 10:52:36;;;;;;;7.25;5.95;;;;;;;19.42;48.67;102214.00;5018534;28;20036;-76
2021/03/24 10:55:11;;;;;;;6.43;5.82;;;;;;;19.45;48.77;102216.69;5015517;28;20423;-77
2021/03/24 10:57:58;;;;;;;6.07;5.35;;;;;;;19.39;48.96;102202.59;5030858;28;20021;-76
2021/03/24 11:00:45;;;;;;;6.25;5.47;;;;;;;19.45;48.99;102207.91;5012114;28;20037;-75
2021/03/24 11:03:23;;;;;;;6.93;5.45;;;;;;;19.46;48.83;102217.56;5032260;28;20464;-76
2021/03/24 11:06:01;;;;;;;6.80;5.47;;;;;;;19.48;49.11;102221.94;5017450;28;20098;-77
2021/03/24 11:08:36;;;;;;;9.13;5.75;;;;;;;19.51;48.89;102229.88;5030845;28;20506;-75
2021/03/24 11:11:11;;;;;;;7.95;5.85;;;;;;;19.46;49.17;102221.06;5019635;28;20026;-75
2021/03/24 11:13:42;;;;;;;6.43;5.75;;;;;;;19.47;49.28;102225.44;5030499;28;20042;-76
2021/03/24 11:16:12;;;;;;;8.73;5.88;;;;;;;19.44;49.17;102222.78;5033867;28;20059;-75
2021/03/24 11:18:42;;;;;;;6.38;5.63;;;;;;;19.49;49.21;102222.84;5033660;28;20021;-75
2021/03/24 11:21:24;;;;;;;7.38;5.75;;;;;;;19.46;48.96;102221.06;5032222;28;20049;-75
2021/03/24 11:23:53;;;;;;;10.02;6.18;;;;;;;19.44;49.32;102219.28;5008375;28;20423;-74
2021/03/24 11:26:31;;;;;;;7.88;5.80;;;;;;;19.48;49.61;102232.44;5001676;28;20022;-74
2021/03/24 11:29:01;;;;;;;7.28;6.47;;;;;;;19.47;49.15;102232.44;5017456;28;20029;-73
2021/03/24 11:31:49;;;;;;;6.60;6.00;;;;;;;19.47;49.53;102235.94;5023408;28;20026;-72
2021/03/24 11:34:20;;;;;;;7.47;5.90;;;;;;;19.46;49.42;102236.81;5029140;28;20552;-78
2021/03/24 11:36:54;;;;;;;5.82;5.03;;;;;;;19.47;49.27;102225.44;5037345;28;20033;-76
2021/03/24 11:39:29;;;;;;;6.68;5.38;;;;;;;19.46;49.31;102220.19;5034187;28;20021;-77
2021/03/24 11:42:09;;;;;;;7.40;6.35;;;;;;;19.50;49.48;102220.25;5020377;28;20428;-72
2021/03/24 11:44:36;;;;;;;9.75;6.90;;;;;;;19.47;49.38;102217.59;5030616;28;20025;-75
2021/03/24 11:47:13;;;;;;;7.90;6.85;;;;;;;19.54;49.46;102223.81;4989084;28;20029;-73
2021/03/24 11:49:50;;;;;;;31.35;25.05;;;;;;;19.56;49.43;102225.59;5022963;28;20108;-73
2021/03/24 11:52:51;;;;;;;58.33;44.63;;;;;;;19.54;49.45;102222.06;5004219;28;20029;-76
2021/03/24 11:55:40;;;;;;;50.83;38.38;;;;;;;19.48;49.61;102219.31;5005951;28;20038;-77
2021/03/24 11:58:11;;;;;;;52.08;39.47;;;;;;;19.49;49.39;102225.47;5020713;28;20381;-72
2021/03/24 12:00:39;;;;;;;45.17;37.22;;;;;;;19.51;49.67;102227.25;5027977;28;20037;-72
2021/03/24 12:03:12;;;;;;;50.67;40.17;;;;;;;19.48;49.71;102228.94;5019553;28;20022;-72
2021/03/24 12:06:01;;;;;;;55.22;41.42;;;;;;;19.45;49.51;102216.69;5014501;28;20040;-76
2021/03/24 12:08:52;;;;;;;52.13;41.13;;;;;;;19.48;49.55;102227.19;5028125;28;20025;-76
2021/03/24 12:11:25;;;;;;;58.65;42.85;;;;;;;19.38;49.59;102209.56;5024372;28;20034;-76